sensor_id;sensor_type;location;lat;lon;timestamp;P1;durP1;ratioP1;P2;durP2;ratioP2
43670;SDS011;29267;50.906;7.248;2023-02-18T00:00:24;13.23;;;8.10;;
43670;SDS011;29267;50.906;7.248;2023-02-18T00:02:51;11.73;;;7.00;;
43670;SDS011;29267;50.906;7.248;2023-02-18T00:05:17;11.77;;;7.95;;
43670;SDS011;29267;50.906;7.248;2023-02-18T00:07:43;11.85;;;7.78;;
43670;SDS011;29267;50.906;7.248;2023-02-18T00:10:12;13.70;;;7.70;;
43670;SDS011;29267;50.906;7.248;2023-02-18T00:12:40;13.57;;;8.63;;
43670;SDS011;29267;50.906;7.248;2023-02-18T00:15:06;13.00;;;8.52;;
43670;SDS011;29267;50.906;7.248;2023-02-18T00:17:33;13.70;;;9.13;;
43670;SDS011;29267;50.906;7.248;2023-02-18T00:19:59;15.60;;;9.98;;
43670;SDS011;29267;50.906;7.248;2023-02-18T00:22:25;14.45;;;9.52;;
43670;SDS011;29267;50.906;7.248;2023-02-18T00:24:50;12.60;;;8.10;;
43670;SDS011;29267;50.906;7.248;2023-02-18T00:27:16;18.77;;;8.95;;
43670;SDS011;29267;50.906;7.248;2023-02-18T00:29:42;12.13;;;8.38;;
43670;SDS011;29267;50.906;7.248;2023-02-18T00:32:07;14.43;;;8.15;;
43670;SDS011;29267;50.906;7.248;2023-02-18T00:34:33;13.90;;;7.88;;
43670;SDS011;29267;50.906;7.248;2023-02-18T00:36:59;17.00;;;7.32;;
43670;SDS011;29267;50.906;7.248;2023-02-18T00:39:24;11.82;;;8.18;;
43670;SDS011;29267;50.906;7.248;2023-02-18T00:41:50;15.77;;;8.82;;
43670;SDS011;29267;50.906;7.248;2023-02-18T00:44:15;13.27;;;8.93;;
43670;SDS011;29267;50.906;7.248;2023-02-18T00:46:41;13.43;;;8.05;;
43670;SDS011;29267;50.906;7.248;2023-02-18T00:49:06;12.63;;;8.18;;
43670;SDS011;29267;50.906;7.248;2023-02-18T00:51:32;14.50;;;8.10;;
43670;SDS011;29267;50.906;7.248;2023-02-18T00:53:59;13.73;;;8.35;;
43670;SDS011;29267;50.906;7.248;2023-02-18T00:56:24;12.18;;;8.07;;
43670;SDS011;29267;50.906;7.248;2023-02-18T00:58:50;12.23;;;8.90;;
43670;SDS011;29267;50.906;7.248;2023-02-18T01:01:16;12.45;;;8.20;;
43670;SDS011;29267;50.906;7.248;2023-02-18T01:03:42;13.00;;;8.75;;
43670;SDS011;29267;50.906;7.248;2023-02-18T01:06:08;12.15;;;8.43;;
43670;SDS011;29267;50.906;7.248;2023-02-18T01:08:35;13.02;;;8.38;;
43670;SDS011;29267;50.906;7.248;2023-02-18T01:11:02;12.38;;;8.00;;
43670;SDS011;29267;50.906;7.248;2023-02-18T01:13:28;11.25;;;7.70;;
43670;SDS011;29267;50.906;7.248;2023-02-18T01:15:54;12.35;;;7.88;;
43670;SDS011;29267;50.906;7.248;2023-02-18T01:18:20;11.77;;;7.65;;
43670;SDS011;29267;50.906;7.248;2023-02-18T01:20:46;13.35;;;7.50;;
43670;SDS011;29267;50.906;7.248;2023-02-18T01:23:12;10.15;;;6.75;;
43670;SDS011;29267;50.906;7.248;2023-02-18T01:25:38;10.48;;;6.63;;
43670;SDS011;29267;50.906;7.248;2023-02-18T01:28:05;10.77;;;6.43;;
43670;SDS011;29267;50.906;7.248;2023-02-18T01:30:32;11.80;;;6.25;;
43670;SDS011;29267;50.906;7.248;2023-02-18T01:32:58;9.77;;;6.10;;
43670;SDS011;29267;50.906;7.248;2023-02-18T01:35:24;12.25;;;6.28;;
43670;SDS011;29267;50.906;7.248;2023-02-18T01:37:50;10.60;;;6.75;;
43670;SDS011;29267;50.906;7.248;2023-02-18T01:40:19;10.73;;;6.95;;
43670;SDS011;29267;50.906;7.248;2023-02-18T01:42:46;9.43;;;5.90;;
43670;SDS011;29267;50.906;7.248;2023-02-18T01:47:57;8.18;;;6.22;;
43670;SDS011;29267;50.906;7.248;2023-02-18T01:50:28;8.20;;;5.25;;
43670;SDS011;29267;50.906;7.248;2023-02-18T01:52:54;6.88;;;4.60;;
43670;SDS011;29267;50.906;7.248;2023-02-18T01:55:20;10.25;;;5.40;;
43670;SDS011;29267;50.906;7.248;2023-02-18T01:57:45;9.07;;;5.20;;
43670;SDS011;29267;50.906;7.248;2023-02-18T02:00:13;10.25;;;5.22;;
43670;SDS011;29267;50.906;7.248;2023-02-18T02:02:41;8.75;;;4.30;;
43670;SDS011;29267;50.906;7.248;2023-02-18T02:05:10;10.82;;;4.53;;
43670;SDS011;29267;50.906;7.248;2023-02-18T02:07:36;6.80;;;4.40;;
43670;SDS011;29267;50.906;7.248;2023-02-18T02:10:03;8.00;;;4.75;;
43670;SDS011;29267;50.906;7.248;2023-02-18T02:15:15;10.70;;;4.38;;
43670;SDS011;29267;50.906;7.248;2023-02-18T02:22:54;7.05;;;4.95;;
43670;SDS011;29267;50.906;7.248;2023-02-18T02:28:28;8.07;;;5.05;;
43670;SDS011;29267;50.906;7.248;2023-02-18T02:31:22;8.70;;;5.07;;
43670;SDS011;29267;50.906;7.248;2023-02-18T02:45:51;9.48;;;5.00;;
43670;SDS011;29267;50.906;7.248;2023-02-18T02:53:30;7.25;;;4.78;;
43670;SDS011;29267;50.906;7.248;2023-02-18T02:55:58;8.25;;;5.22;;
43670;SDS011;29267;50.906;7.248;2023-02-18T02:58:23;9.05;;;5.20;;
43670;SDS011;29267;50.906;7.248;2023-02-18T03:06:38;8.52;;;5.20;;
43670;SDS011;29267;50.906;7.248;2023-02-18T03:17:36;6.80;;;4.53;;
43670;SDS011;29267;50.906;7.248;2023-02-18T03:20:15;6.07;;;4.18;;
43670;SDS011;29267;50.906;7.248;2023-02-18T03:22:52;7.32;;;3.75;;
43670;SDS011;29267;50.906;7.248;2023-02-18T03:25:19;6.93;;;4.03;;
43670;SDS011;29267;50.906;7.248;2023-02-18T03:27:58;6.25;;;3.90;;
43670;SDS011;29267;50.906;7.248;2023-02-18T03:30:29;8.07;;;4.05;;
43670;SDS011;29267;50.906;7.248;2023-02-18T03:33:00;6.50;;;3.80;;
43670;SDS011;29267;50.906;7.248;2023-02-18T03:35:30;5.80;;;3.80;;
43670;SDS011;29267;50.906;7.248;2023-02-18T03:40:54;5.65;;;3.38;;
43670;SDS011;29267;50.906;7.248;2023-02-18T03:43:20;5.00;;;2.83;;
43670;SDS011;29267;50.906;7.248;2023-02-18T03:45:45;5.68;;;3.15;;
43670;SDS011;29267;50.906;7.248;2023-02-18T03:48:11;4.10;;;2.70;;
43670;SDS011;29267;50.906;7.248;2023-02-18T03:50:37;3.50;;;2.70;;
43670;SDS011;29267;50.906;7.248;2023-02-18T03:53:02;4.45;;;2.78;;
43670;SDS011;29267;50.906;7.248;2023-02-18T03:55:28;4.43;;;2.67;;
43670;SDS011;29267;50.906;7.248;2023-02-18T03:57:54;6.50;;;2.40;;
43670;SDS011;29267;50.906;7.248;2023-02-18T04:00:19;6.38;;;2.70;;
43670;SDS011;29267;50.906;7.248;2023-02-18T04:02:45;3.10;;;2.30;;
43670;SDS011;29267;50.906;7.248;2023-02-18T04:05:11;7.90;;;2.00;;
43670;SDS011;29267;50.906;7.248;2023-02-18T04:07:36;3.15;;;1.92;;
43670;SDS011;29267;50.906;7.248;2023-02-18T04:10:03;5.35;;;2.78;;
43670;SDS011;29267;50.906;7.248;2023-02-18T04:12:29;3.55;;;2.30;;
43670;SDS011;29267;50.906;7.248;2023-02-18T04:14:54;2.67;;;1.90;;
43670;SDS011;29267;50.906;7.248;2023-02-18T04:17:20;1.92;;;1.60;;
43670;SDS011;29267;50.906;7.248;2023-02-18T04:19:45;3.05;;;1.98;;
43670;SDS011;29267;50.906;7.248;2023-02-18T04:22:11;4.13;;;1.90;;
43670;SDS011;29267;50.906;7.248;2023-02-18T04:24:37;2.40;;;1.70;;
43670;SDS011;29267;50.906;7.248;2023-02-18T04:27:02;2.90;;;1.45;;
43670;SDS011;29267;50.906;7.248;2023-02-18T04:29:28;2.92;;;1.80;;
43670;SDS011;29267;50.906;7.248;2023-02-18T04:31:53;2.05;;;1.40;;
43670;SDS011;29267;50.906;7.248;2023-02-18T04:34:19;3.05;;;1.85;;
43670;SDS011;29267;50.906;7.248;2023-02-18T04:36:45;2.85;;;1.70;;
43670;SDS011;29267;50.906;7.248;2023-02-18T04:39:10;2.88;;;1.67;;
43670;SDS011;29267;50.906;7.248;2023-02-18T04:41:36;3.05;;;1.77;;
43670;SDS011;29267;50.906;7.248;2023-02-18T04:44:01;2.58;;;1.70;;
43670;SDS011;29267;50.906;7.248;2023-02-18T04:46:27;2.35;;;1.80;;
43670;SDS011;29267;50.906;7.248;2023-02-18T04:48:53;2.47;;;1.85;;
43670;SDS011;29267;50.906;7.248;2023-02-18T04:51:18;1.63;;;1.13;;
43670;SDS011;29267;50.906;7.248;2023-02-18T04:53:44;1.52;;;1.00;;
43670;SDS011;29267;50.906;7.248;2023-02-18T04:56:10;1.55;;;1.05;;
43670;SDS011;29267;50.906;7.248;2023-02-18T04:58:35;2.90;;;0.63;;
43670;SDS011;29267;50.906;7.248;2023-02-18T05:01:02;0.77;;;0.50;;
43670;SDS011;29267;50.906;7.248;2023-02-18T05:03:28;0.60;;;0.60;;
43670;SDS011;29267;50.906;7.248;2023-02-18T05:05:55;1.35;;;0.50;;
43670;SDS011;29267;50.906;7.248;2023-02-18T05:08:20;0.30;;;0.30;;
43670;SDS011;29267;50.906;7.248;2023-02-18T05:10:46;0.40;;;0.40;;
43670;SDS011;29267;50.906;7.248;2023-02-18T05:13:12;0.30;;;0.30;;
43670;SDS011;29267;50.906;7.248;2023-02-18T05:15:37;0.60;;;0.50;;
43670;SDS011;29267;50.906;7.248;2023-02-18T05:18:03;0.10;;;0.10;;
43670;SDS011;29267;50.906;7.248;2023-02-18T05:20:28;0.30;;;0.30;;
43670;SDS011;29267;50.906;7.248;2023-02-18T05:22:54;0.90;;;0.40;;
43670;SDS011;29267;50.906;7.248;2023-02-18T05:25:20;0.40;;;0.40;;
43670;SDS011;29267;50.906;7.248;2023-02-18T05:27:45;0.20;;;0.20;;
43670;SDS011;29267;50.906;7.248;2023-02-18T05:30:11;0.30;;;0.30;;
43670;SDS011;29267;50.906;7.248;2023-02-18T05:32:37;2.03;;;0.30;;
43670;SDS011;29267;50.906;7.248;2023-02-18T05:35:03;0.80;;;0.30;;
43670;SDS011;29267;50.906;7.248;2023-02-18T05:37:29;0.47;;;0.47;;
43670;SDS011;29267;50.906;7.248;2023-02-18T05:39:54;5.05;;;0.40;;
43670;SDS011;29267;50.906;7.248;2023-02-18T05:42:20;0.98;;;0.40;;
43670;SDS011;29267;50.906;7.248;2023-02-18T05:44:47;0.28;;;0.28;;
43670;SDS011;29267;50.906;7.248;2023-02-18T05:47:13;1.80;;;0.30;;
43670;SDS011;29267;50.906;7.248;2023-02-18T05:49:40;0.10;;;0.10;;
43670;SDS011;29267;50.906;7.248;2023-02-18T05:52:06;3.53;;;0.40;;
43670;SDS011;29267;50.906;7.248;2023-02-18T05:54:32;0.20;;;0.20;;
43670;SDS011;29267;50.906;7.248;2023-02-18T05:56:58;0.10;;;0.10;;
43670;SDS011;29267;50.906;7.248;2023-02-18T05:59:23;0.35;;;0.20;;
43670;SDS011;29267;50.906;7.248;2023-02-18T06:01:49;0.40;;;0.30;;
43670;SDS011;29267;50.906;7.248;2023-02-18T06:04:15;2.35;;;0.30;;
43670;SDS011;29267;50.906;7.248;2023-02-18T06:06:40;0.38;;;0.38;;
43670;SDS011;29267;50.906;7.248;2023-02-18T06:09:06;0.75;;;0.20;;
43670;SDS011;29267;50.906;7.248;2023-02-18T06:11:32;0.30;;;0.30;;
43670;SDS011;29267;50.906;7.248;2023-02-18T06:13:58;0.68;;;0.30;;
43670;SDS011;29267;50.906;7.248;2023-02-18T06:16:24;0.30;;;0.30;;
43670;SDS011;29267;50.906;7.248;2023-02-18T06:18:50;0.28;;;0.28;;
43670;SDS011;29267;50.906;7.248;2023-02-18T06:21:15;0.45;;;0.30;;
43670;SDS011;29267;50.906;7.248;2023-02-18T06:23:41;1.85;;;0.50;;
43670;SDS011;29267;50.906;7.248;2023-02-18T06:26:07;0.30;;;0.30;;
43670;SDS011;29267;50.906;7.248;2023-02-18T06:28:32;0.20;;;0.20;;
43670;SDS011;29267;50.906;7.248;2023-02-18T06:30:58;0.25;;;0.25;;
43670;SDS011;29267;50.906;7.248;2023-02-18T06:33:23;0.85;;;0.40;;
43670;SDS011;29267;50.906;7.248;2023-02-18T06:36:02;2.17;;;0.50;;
43670;SDS011;29267;50.906;7.248;2023-02-18T06:38:32;3.90;;;1.02;;
43670;SDS011;29267;50.906;7.248;2023-02-18T06:40:59;2.60;;;1.23;;
43670;SDS011;29267;50.906;7.248;2023-02-18T06:43:26;1.33;;;0.60;;
43670;SDS011;29267;50.906;7.248;2023-02-18T06:45:51;1.52;;;0.60;;
43670;SDS011;29267;50.906;7.248;2023-02-18T06:48:17;0.60;;;0.57;;
43670;SDS011;29267;50.906;7.248;2023-02-18T06:50:43;1.25;;;0.50;;
43670;SDS011;29267;50.906;7.248;2023-02-18T06:53:09;0.40;;;0.40;;
43670;SDS011;29267;50.906;7.248;2023-02-18T06:55:35;1.05;;;0.50;;
43670;SDS011;29267;50.906;7.248;2023-02-18T06:58:01;0.43;;;0.43;;
43670;SDS011;29267;50.906;7.248;2023-02-18T07:00:26;1.23;;;0.52;;
43670;SDS011;29267;50.906;7.248;2023-02-18T07:02:52;1.90;;;1.38;;
43670;SDS011;29267;50.906;7.248;2023-02-18T07:05:18;2.75;;;1.83;;
43670;SDS011;29267;50.906;7.248;2023-02-18T07:07:43;1.20;;;1.10;;
43670;SDS011;29267;50.906;7.248;2023-02-18T07:10:09;3.47;;;1.88;;
43670;SDS011;29267;50.906;7.248;2023-02-18T07:12:35;1.52;;;1.25;;
43670;SDS011;29267;50.906;7.248;2023-02-18T07:15:00;1.27;;;0.90;;
43670;SDS011;29267;50.906;7.248;2023-02-18T07:17:26;0.90;;;0.90;;
43670;SDS011;29267;50.906;7.248;2023-02-18T07:19:52;1.30;;;0.95;;
43670;SDS011;29267;50.906;7.248;2023-02-18T07:22:19;0.98;;;0.88;;
43670;SDS011;29267;50.906;7.248;2023-02-18T07:24:45;0.70;;;0.70;;
43670;SDS011;29267;50.906;7.248;2023-02-18T07:27:14;23.73;;;11.10;;
43670;SDS011;29267;50.906;7.248;2023-02-18T07:29:40;18.67;;;12.05;;
43670;SDS011;29267;50.906;7.248;2023-02-18T07:32:05;35.25;;;24.88;;
43670;SDS011;29267;50.906;7.248;2023-02-18T07:34:31;4.38;;;3.60;;
43670;SDS011;29267;50.906;7.248;2023-02-18T07:36:56;1.95;;;1.13;;
43670;SDS011;29267;50.906;7.248;2023-02-18T07:39:22;1.40;;;0.60;;
43670;SDS011;29267;50.906;7.248;2023-02-18T07:41:47;0.57;;;0.47;;
43670;SDS011;29267;50.906;7.248;2023-02-18T07:44:13;0.50;;;0.50;;
43670;SDS011;29267;50.906;7.248;2023-02-18T07:46:39;1.35;;;0.50;;
43670;SDS011;29267;50.906;7.248;2023-02-18T07:49:06;1.08;;;0.70;;
43670;SDS011;29267;50.906;7.248;2023-02-18T07:51:32;0.50;;;0.50;;
43670;SDS011;29267;50.906;7.248;2023-02-18T07:53:57;1.17;;;0.60;;
43670;SDS011;29267;50.906;7.248;2023-02-18T07:56:23;0.50;;;0.50;;
43670;SDS011;29267;50.906;7.248;2023-02-18T07:58:48;0.40;;;0.40;;
43670;SDS011;29267;50.906;7.248;2023-02-18T08:01:14;0.30;;;0.30;;
43670;SDS011;29267;50.906;7.248;2023-02-18T08:03:40;0.57;;;0.47;;
43670;SDS011;29267;50.906;7.248;2023-02-18T08:06:06;0.50;;;0.50;;
43670;SDS011;29267;50.906;7.248;2023-02-18T08:08:33;0.40;;;0.40;;
43670;SDS011;29267;50.906;7.248;2023-02-18T08:11:00;1.05;;;0.80;;
43670;SDS011;29267;50.906;7.248;2023-02-18T08:13:27;0.40;;;0.40;;
43670;SDS011;29267;50.906;7.248;2023-02-18T08:15:54;0.50;;;0.50;;
43670;SDS011;29267;50.906;7.248;2023-02-18T08:18:21;0.50;;;0.50;;
43670;SDS011;29267;50.906;7.248;2023-02-18T08:20:48;0.40;;;0.40;;
43670;SDS011;29267;50.906;7.248;2023-02-18T08:23:17;1.52;;;0.50;;
43670;SDS011;29267;50.906;7.248;2023-02-18T08:25:48;2.00;;;1.55;;
43670;SDS011;29267;50.906;7.248;2023-02-18T08:28:15;2.05;;;1.33;;
43670;SDS011;29267;50.906;7.248;2023-02-18T08:30:45;1.58;;;1.15;;
43670;SDS011;29267;50.906;7.248;2023-02-18T08:33:11;1.45;;;1.33;;
43670;SDS011;29267;50.906;7.248;2023-02-18T08:35:37;2.53;;;0.73;;
43670;SDS011;29267;50.906;7.248;2023-02-18T08:38:03;3.35;;;1.02;;
43670;SDS011;29267;50.906;7.248;2023-02-18T08:40:28;4.22;;;1.00;;
43670;SDS011;29267;50.906;7.248;2023-02-18T08:42:54;5.47;;;2.13;;
43670;SDS011;29267;50.906;7.248;2023-02-18T08:45:19;4.20;;;1.52;;
43670;SDS011;29267;50.906;7.248;2023-02-18T08:47:45;4.00;;;1.38;;
43670;SDS011;29267;50.906;7.248;2023-02-18T08:50:11;5.97;;;1.83;;
43670;SDS011;29267;50.906;7.248;2023-02-18T08:52:36;6.07;;;1.55;;
43670;SDS011;29267;50.906;7.248;2023-02-18T08:55:04;6.10;;;1.13;;
43670;SDS011;29267;50.906;7.248;2023-02-18T08:57:30;8.63;;;1.95;;
43670;SDS011;29267;50.906;7.248;2023-02-18T08:59:56;8.07;;;3.08;;
43670;SDS011;29267;50.906;7.248;2023-02-18T09:02:21;8.38;;;1.98;;
43670;SDS011;29267;50.906;7.248;2023-02-18T09:04:47;10.98;;;3.95;;
43670;SDS011;29267;50.906;7.248;2023-02-18T09:07:13;10.18;;;2.10;;
43670;SDS011;29267;50.906;7.248;2023-02-18T09:09:38;7.20;;;1.80;;
43670;SDS011;29267;50.906;7.248;2023-02-18T09:12:04;7.57;;;2.55;;
43670;SDS011;29267;50.906;7.248;2023-02-18T09:14:30;4.55;;;2.05;;
43670;SDS011;29267;50.906;7.248;2023-02-18T09:16:56;7.15;;;2.03;;
43670;SDS011;29267;50.906;7.248;2023-02-18T09:19:22;6.95;;;2.15;;
43670;SDS011;29267;50.906;7.248;2023-02-18T09:21:48;9.70;;;2.33;;
43670;SDS011;29267;50.906;7.248;2023-02-18T09:24:14;5.60;;;1.90;;
43670;SDS011;29267;50.906;7.248;2023-02-18T09:26:39;7.38;;;2.05;;
43670;SDS011;29267;50.906;7.248;2023-02-18T09:29:05;3.22;;;1.67;;
43670;SDS011;29267;50.906;7.248;2023-02-18T09:31:30;7.03;;;2.10;;
43670;SDS011;29267;50.906;7.248;2023-02-18T09:33:58;3.28;;;2.00;;
43670;SDS011;29267;50.906;7.248;2023-02-18T09:36:25;6.22;;;1.60;;
43670;SDS011;29267;50.906;7.248;2023-02-18T09:38:51;4.38;;;1.73;;
43670;SDS011;29267;50.906;7.248;2023-02-18T09:41:40;4.75;;;2.25;;
43670;SDS011;29267;50.906;7.248;2023-02-18T09:46:44;7.40;;;3.10;;
43670;SDS011;29267;50.906;7.248;2023-02-18T09:49:16;7.22;;;2.75;;
43670;SDS011;29267;50.906;7.248;2023-02-18T09:51:55;10.15;;;3.08;;
43670;SDS011;29267;50.906;7.248;2023-02-18T09:54:25;10.38;;;2.47;;
43670;SDS011;29267;50.906;7.248;2023-02-18T09:56:51;10.25;;;2.28;;
43670;SDS011;29267;50.906;7.248;2023-02-18T09:59:18;11.18;;;2.00;;
43670;SDS011;29267;50.906;7.248;2023-02-18T10:01:47;11.70;;;4.50;;
43670;SDS011;29267;50.906;7.248;2023-02-18T10:04:29;11.57;;;4.78;;
43670;SDS011;29267;50.906;7.248;2023-02-18T10:06:59;45.35;;;15.60;;
43670;SDS011;29267;50.906;7.248;2023-02-18T10:09:28;29.08;;;10.48;;
43670;SDS011;29267;50.906;7.248;2023-02-18T10:12:03;39.08;;;14.93;;
43670;SDS011;29267;50.906;7.248;2023-02-18T10:14:42;71.60;;;29.60;;
43670;SDS011;29267;50.906;7.248;2023-02-18T10:17:11;17.02;;;7.50;;
43670;SDS011;29267;50.906;7.248;2023-02-18T10:19:40;40.10;;;15.82;;
43670;SDS011;29267;50.906;7.248;2023-02-18T10:22:09;45.53;;;19.23;;
43670;SDS011;29267;50.906;7.248;2023-02-18T10:24:41;13.70;;;7.03;;
43670;SDS011;29267;50.906;7.248;2023-02-18T10:27:12;219.43;;;69.30;;
43670;SDS011;29267;50.906;7.248;2023-02-18T10:29:48;182.73;;;58.65;;
43670;SDS011;29267;50.906;7.248;2023-02-18T10:32:26;42.30;;;15.10;;
43670;SDS011;29267;50.906;7.248;2023-02-18T10:41:57;81.85;;;33.50;;
43670;SDS011;29267;50.906;7.248;2023-02-18T10:44:32;16.77;;;4.72;;
43670;SDS011;29267;50.906;7.248;2023-02-18T10:50:07;6.93;;;2.50;;
43670;SDS011;29267;50.906;7.248;2023-02-18T10:52:43;7.50;;;2.93;;
43670;SDS011;29267;50.906;7.248;2023-02-18T10:55:14;9.40;;;2.40;;
43670;SDS011;29267;50.906;7.248;2023-02-18T10:57:46;4.18;;;2.30;;
43670;SDS011;29267;50.906;7.248;2023-02-18T11:00:19;4.55;;;2.33;;
43670;SDS011;29267;50.906;7.248;2023-02-18T11:05:38;8.60;;;2.47;;
43670;SDS011;29267;50.906;7.248;2023-02-18T11:08:06;7.63;;;2.25;;
43670;SDS011;29267;50.906;7.248;2023-02-18T11:10:35;10.93;;;2.83;;
43670;SDS011;29267;50.906;7.248;2023-02-18T11:13:04;4.28;;;2.13;;
43670;SDS011;29267;50.906;7.248;2023-02-18T11:15:31;9.02;;;2.30;;
43670;SDS011;29267;50.906;7.248;2023-02-18T11:18:10;9.02;;;2.95;;
43670;SDS011;29267;50.906;7.248;2023-02-18T11:20:39;6.15;;;2.22;;
43670;SDS011;29267;50.906;7.248;2023-02-18T11:25:31;7.82;;;2.88;;
43670;SDS011;29267;50.906;7.248;2023-02-18T11:28:00;8.80;;;2.85;;
43670;SDS011;29267;50.906;7.248;2023-02-18T11:30:37;8.10;;;4.45;;
43670;SDS011;29267;50.906;7.248;2023-02-18T11:33:38;5.15;;;3.05;;
43670;SDS011;29267;50.906;7.248;2023-02-18T11:38:44;6.93;;;2.90;;
43670;SDS011;29267;50.906;7.248;2023-02-18T11:41:14;6.35;;;2.45;;
43670;SDS011;29267;50.906;7.248;2023-02-18T11:43:45;11.05;;;2.50;;
43670;SDS011;29267;50.906;7.248;2023-02-18T11:46:18;3.70;;;2.55;;
43670;SDS011;29267;50.906;7.248;2023-02-18T11:48:46;7.22;;;2.85;;
43670;SDS011;29267;50.906;7.248;2023-02-18T11:51:17;8.05;;;2.08;;
43670;SDS011;29267;50.906;7.248;2023-02-18T11:53:56;7.88;;;3.05;;
43670;SDS011;29267;50.906;7.248;2023-02-18T11:56:27;3.20;;;1.95;;
43670;SDS011;29267;50.906;7.248;2023-02-18T11:58:54;8.05;;;2.30;;
43670;SDS011;29267;50.906;7.248;2023-02-18T12:01:42;4.68;;;1.63;;
43670;SDS011;29267;50.906;7.248;2023-02-18T12:06:45;8.20;;;2.38;;
43670;SDS011;29267;50.906;7.248;2023-02-18T12:09:38;16.73;;;5.97;;
43670;SDS011;29267;50.906;7.248;2023-02-18T12:12:24;30.40;;;11.35;;
43670;SDS011;29267;50.906;7.248;2023-02-18T12:15:02;10.02;;;5.25;;
43670;SDS011;29267;50.906;7.248;2023-02-18T12:25:47;52.63;;;21.80;;
43670;SDS011;29267;50.906;7.248;2023-02-18T12:31:16;30.63;;;17.13;;
43670;SDS011;29267;50.906;7.248;2023-02-18T12:39:11;14.13;;;7.33;;
43670;SDS011;29267;50.906;7.248;2023-02-18T12:44:29;12.07;;;6.25;;
43670;SDS011;29267;50.906;7.248;2023-02-18T12:49:45;8.63;;;5.25;;
43670;SDS011;29267;50.906;7.248;2023-02-18T12:52:39;7.82;;;4.32;;
43670;SDS011;29267;50.906;7.248;2023-02-18T13:01:28;9.35;;;7.28;;
43670;SDS011;29267;50.906;7.248;2023-02-18T13:15:20;6.78;;;4.07;;
43670;SDS011;29267;50.906;7.248;2023-02-18T13:17:53;7.50;;;3.33;;
43670;SDS011;29267;50.906;7.248;2023-02-18T13:20:33;5.90;;;3.70;;
43670;SDS011;29267;50.906;7.248;2023-02-18T13:23:02;5.70;;;3.95;;
43670;SDS011;29267;50.906;7.248;2023-02-18T13:25:31;13.43;;;3.80;;
43670;SDS011;29267;50.906;7.248;2023-02-18T13:35:59;14.30;;;7.57;;
43670;SDS011;29267;50.906;7.248;2023-02-18T13:41:20;28.20;;;10.25;;
43670;SDS011;29267;50.906;7.248;2023-02-18T13:43:46;54.30;;;19.30;;
43670;SDS011;29267;50.906;7.248;2023-02-18T13:46:14;47.78;;;17.40;;
43670;SDS011;29267;50.906;7.248;2023-02-18T13:51:11;75.10;;;18.65;;
43670;SDS011;29267;50.906;7.248;2023-02-18T13:53:39;50.80;;;15.82;;
43670;SDS011;29267;50.906;7.248;2023-02-18T13:56:09;55.75;;;18.45;;
43670;SDS011;29267;50.906;7.248;2023-02-18T13:59:00;16.20;;;8.25;;
43670;SDS011;29267;50.906;7.248;2023-02-18T14:01:51;38.17;;;16.80;;
43670;SDS011;29267;50.906;7.248;2023-02-18T14:31:44;12.93;;;6.30;;
43670;SDS011;29267;50.906;7.248;2023-02-18T14:39:12;8.55;;;4.47;;
43670;SDS011;29267;50.906;7.248;2023-02-18T14:44:55;9.40;;;5.75;;
43670;SDS011;29267;50.906;7.248;2023-02-18T14:47:50;10.32;;;5.80;;
43670;SDS011;29267;50.906;7.248;2023-02-18T14:50:40;6.53;;;4.38;;
43670;SDS011;29267;50.906;7.248;2023-02-18T14:53:10;8.52;;;4.88;;
43670;SDS011;29267;50.906;7.248;2023-02-18T14:55:49;8.10;;;5.45;;
43670;SDS011;29267;50.906;7.248;2023-02-18T14:58:29;6.15;;;4.38;;
43670;SDS011;29267;50.906;7.248;2023-02-18T15:01:05;8.85;;;3.63;;
43670;SDS011;29267;50.906;7.248;2023-02-18T15:03:32;8.80;;;4.70;;
43670;SDS011;29267;50.906;7.248;2023-02-18T15:05:57;4.30;;;3.47;;
43670;SDS011;29267;50.906;7.248;2023-02-18T15:08:24;8.40;;;3.45;;
43670;SDS011;29267;50.906;7.248;2023-02-18T15:10:57;8.93;;;3.97;;
43670;SDS011;29267;50.906;7.248;2023-02-18T15:15:53;7.28;;;3.55;;
43670;SDS011;29267;50.906;7.248;2023-02-18T15:21:01;4.57;;;3.20;;
43670;SDS011;29267;50.906;7.248;2023-02-18T15:23:29;5.07;;;4.15;;
43670;SDS011;29267;50.906;7.248;2023-02-18T15:25:55;3.88;;;3.22;;
43670;SDS011;29267;50.906;7.248;2023-02-18T15:28:29;5.20;;;3.92;;
43670;SDS011;29267;50.906;7.248;2023-02-18T15:30:57;13.32;;;5.00;;
43670;SDS011;29267;50.906;7.248;2023-02-18T15:33:24;6.97;;;5.28;;
43670;SDS011;29267;50.906;7.248;2023-02-18T15:35:51;7.38;;;5.03;;
43670;SDS011;29267;50.906;7.248;2023-02-18T15:38:23;8.02;;;4.93;;
43670;SDS011;29267;50.906;7.248;2023-02-18T15:40:56;9.00;;;5.63;;
43670;SDS011;29267;50.906;7.248;2023-02-18T15:43:23;13.07;;;6.28;;
43670;SDS011;29267;50.906;7.248;2023-02-18T15:45:51;9.10;;;5.65;;
43670;SDS011;29267;50.906;7.248;2023-02-18T15:48:30;11.57;;;6.55;;
43670;SDS011;29267;50.906;7.248;2023-02-18T15:51:03;11.70;;;6.15;;
43670;SDS011;29267;50.906;7.248;2023-02-18T15:53:35;10.85;;;6.50;;
43670;SDS011;29267;50.906;7.248;2023-02-18T15:56:04;10.65;;;6.13;;
43670;SDS011;29267;50.906;7.248;2023-02-18T15:58:33;9.57;;;5.88;;
43670;SDS011;29267;50.906;7.248;2023-02-18T16:01:00;10.65;;;5.50;;
43670;SDS011;29267;50.906;7.248;2023-02-18T16:11:25;10.35;;;5.07;;
43670;SDS011;29267;50.906;7.248;2023-02-18T16:13:55;10.00;;;5.75;;
43670;SDS011;29267;50.906;7.248;2023-02-18T16:16:26;8.63;;;5.72;;
43670;SDS011;29267;50.906;7.248;2023-02-18T16:18:55;6.85;;;4.85;;
43670;SDS011;29267;50.906;7.248;2023-02-18T16:21:31;6.57;;;4.95;;
43670;SDS011;29267;50.906;7.248;2023-02-18T16:24:02;7.30;;;5.35;;
43670;SDS011;29267;50.906;7.248;2023-02-18T16:26:49;7.90;;;4.75;;
43670;SDS011;29267;50.906;7.248;2023-02-18T16:29:20;7.75;;;5.28;;
43670;SDS011;29267;50.906;7.248;2023-02-18T16:31:47;9.13;;;5.22;;
43670;SDS011;29267;50.906;7.248;2023-02-18T16:34:13;6.18;;;4.75;;
43670;SDS011;29267;50.906;7.248;2023-02-18T16:36:39;8.68;;;4.90;;
43670;SDS011;29267;50.906;7.248;2023-02-18T16:39:24;5.82;;;4.43;;
43670;SDS011;29267;50.906;7.248;2023-02-18T16:41:52;9.38;;;5.43;;
43670;SDS011;29267;50.906;7.248;2023-02-18T16:44:17;7.30;;;4.43;;
43670;SDS011;29267;50.906;7.248;2023-02-18T16:46:43;5.50;;;4.35;;
43670;SDS011;29267;50.906;7.248;2023-02-18T16:49:09;5.68;;;4.88;;
43670;SDS011;29267;50.906;7.248;2023-02-18T16:51:38;7.50;;;4.30;;
43670;SDS011;29267;50.906;7.248;2023-02-18T16:54:04;6.45;;;4.40;;
43670;SDS011;29267;50.906;7.248;2023-02-18T16:56:30;6.60;;;4.28;;
43670;SDS011;29267;50.906;7.248;2023-02-18T16:58:58;5.35;;;4.05;;
43670;SDS011;29267;50.906;7.248;2023-02-18T17:01:30;8.40;;;4.72;;
43670;SDS011;29267;50.906;7.248;2023-02-18T17:04:00;5.18;;;3.88;;
43670;SDS011;29267;50.906;7.248;2023-02-18T17:06:27;20.73;;;9.00;;
43670;SDS011;29267;50.906;7.248;2023-02-18T17:08:53;19.88;;;8.85;;
43670;SDS011;29267;50.906;7.248;2023-02-18T17:11:23;17.40;;;7.05;;
43670;SDS011;29267;50.906;7.248;2023-02-18T17:13:52;24.17;;;9.27;;
43670;SDS011;29267;50.906;7.248;2023-02-18T17:16:18;31.05;;;10.70;;
43670;SDS011;29267;50.906;7.248;2023-02-18T17:18:45;67.43;;;22.85;;
43670;SDS011;29267;50.906;7.248;2023-02-18T17:21:12;36.00;;;12.93;;
43670;SDS011;29267;50.906;7.248;2023-02-18T17:23:39;75.50;;;24.30;;
43670;SDS011;29267;50.906;7.248;2023-02-18T17:26:26;88.60;;;32.13;;
43670;SDS011;29267;50.906;7.248;2023-02-18T17:28:53;38.08;;;12.88;;
43670;SDS011;29267;50.906;7.248;2023-02-18T17:31:22;40.50;;;14.07;;
43670;SDS011;29267;50.906;7.248;2023-02-18T17:33:53;34.28;;;12.15;;
43670;SDS011;29267;50.906;7.248;2023-02-18T17:36:21;54.85;;;19.60;;
43670;SDS011;29267;50.906;7.248;2023-02-18T17:38:47;37.55;;;17.13;;
43670;SDS011;29267;50.906;7.248;2023-02-18T17:41:13;31.33;;;14.82;;
43670;SDS011;29267;50.906;7.248;2023-02-18T17:43:39;26.20;;;12.00;;